Rosa Maersk — OVST2 — position and weather

sailwx.info

Track history (hours):
 
Tides and Currents Weather Stations Pressure Air Temp Water Temp Dewpoint Dewpoint Depression Visibility Wind Speed Wind Dir Waves Ship Positions

Rosa Maersk

Last reported at 2017-Feb-21 07:33 UTC. Time now 2017-Feb-21 07:53 UTC.
Position N 44°44' E 037°47'.

Length 172 m; draft 7 m.

Type: Ship. MMSI: 220288000.

Date/timePositionNaut miles runAvg speedWind from/ knotsBaromVisibWave heightAir tempDewpointWater temp
2017-Feb-21 07:33N 44°44' E 037°47'0 0.0
2017-Feb-21 06:33N 44°44' E 037°47'0 0.0
2017-Feb-21 05:33N 44°44' E 037°47'0 0.0
2017-Feb-21 04:33N 44°44' E 037°47'0 0.0
2017-Feb-21 03:33N 44°44' E 037°47'0 0.0
2017-Feb-21 02:33N 44°44' E 037°47'0 0.0
2017-Feb-21 01:33N 44°44' E 037°47'0 0.0
2017-Feb-21 00:33N 44°44' E 037°47'0 0.0
2017-Feb-20 23:33N 44°44' E 037°47'0 0.0
2017-Feb-20 22:33N 44°44' E 037°47'0 0.0
2017-Feb-20 21:33N 44°44' E 037°47'0 0.0
2017-Feb-20 20:33N 44°44' E 037°47'0 0.0
2017-Feb-20 19:33N 44°44' E 037°47'0 0.0
2017-Feb-20 18:33N 44°44' E 037°47'0 0.0
2017-Feb-20 17:33N 44°44' E 037°47'0 0.0
2017-Feb-20 16:33N 44°44' E 037°47'0 0.0
2017-Feb-20 15:33N 44°44' E 037°47'0 0.0
2017-Feb-20 14:33N 44°44' E 037°47'0 0.0
2017-Feb-20 13:33N 44°44' E 037°47'0 0.0
2017-Feb-20 12:33N 44°44' E 037°47'0 0.0
2017-Feb-20 11:33N 44°44' E 037°47'0 0.0
2017-Feb-20 10:33N 44°44' E 037°47'0 0.0
2017-Feb-20 09:33N 44°44' E 037°47'0 0.0
2017-Feb-20 08:33N 44°44' E 037°47'0 0.0
2017-Feb-20 07:33N 44°44' E 037°47'0 0.0
2017-Feb-20 06:33N 44°44' E 037°47'0 0.0
2017-Feb-20 05:33N 44°44' E 037°47'0 0.0
2017-Feb-20 04:33N 44°44' E 037°47'1 1.1
2017-Feb-20 03:33N 44°43' E 037°48'9 9.0
2017-Feb-20 02:33N 44°34' E 037°51'1211.7
2017-Feb-20 01:30N 44°29' E 037°36'5 1.0
2017-Feb-19 20:30N 44°24' E 037°36'10 8.2
2017-Feb-19 19:19N 44°26' E 037°23'31 3.4
2017-Feb-19 10:10N 44°14' E 038°04'2438.0
2017-Feb-19 09:33N 44°18' E 037°32'1 1.2
2017-Feb-19 08:33N 44°17' E 037°33'4 0.2
2017-Feb-18 05:09N 44°14' E 037°36'910.9
2017-Feb-18 04:21N 44°22' E 037°32'  
Track history (hours):
 
Tides and Currents Weather Stations Pressure Air Temp Water Temp Dewpoint Dewpoint Depression Visibility Wind Speed Wind Dir Waves Ship Positions

Rosa Maersk

Last reported at 2017-Feb-21 07:33 UTC. Time now 2017-Feb-21 07:53 UTC.
Position N 44°44' E 037°47'.

Length 172 m; draft 7 m.

Type: Ship. MMSI: 220288000.

Date/timePositionNaut miles runAvg speedWind from/ knotsBaromVisibWave heightAir tempDewpointWater temp
2017-Feb-21 07:33N 44°44' E 037°47'0 0.0
2017-Feb-21 06:33N 44°44' E 037°47'0 0.0
2017-Feb-21 05:33N 44°44' E 037°47'0 0.0
2017-Feb-21 04:33N 44°44' E 037°47'0 0.0
2017-Feb-21 03:33N 44°44' E 037°47'0 0.0
2017-Feb-21 02:33N 44°44' E 037°47'0 0.0
2017-Feb-21 01:33N 44°44' E 037°47'0 0.0
2017-Feb-21 00:33N 44°44' E 037°47'0 0.0
2017-Feb-20 23:33N 44°44' E 037°47'0 0.0
2017-Feb-20 22:33N 44°44' E 037°47'0 0.0
2017-Feb-20 21:33N 44°44' E 037°47'0 0.0
2017-Feb-20 20:33N 44°44' E 037°47'0 0.0
2017-Feb-20 19:33N 44°44' E 037°47'0 0.0
2017-Feb-20 18:33N 44°44' E 037°47'0 0.0
2017-Feb-20 17:33N 44°44' E 037°47'0 0.0
2017-Feb-20 16:33N 44°44' E 037°47'0 0.0
2017-Feb-20 15:33N 44°44' E 037°47'0 0.0
2017-Feb-20 14:33N 44°44' E 037°47'0 0.0
2017-Feb-20 13:33N 44°44' E 037°47'0 0.0
2017-Feb-20 12:33N 44°44' E 037°47'0 0.0
2017-Feb-20 11:33N 44°44' E 037°47'0 0.0
2017-Feb-20 10:33N 44°44' E 037°47'0 0.0
2017-Feb-20 09:33N 44°44' E 037°47'0 0.0
2017-Feb-20 08:33N 44°44' E 037°47'0 0.0
2017-Feb-20 07:33N 44°44' E 037°47'0 0.0
2017-Feb-20 06:33N 44°44' E 037°47'0 0.0
2017-Feb-20 05:33N 44°44' E 037°47'0 0.0
2017-Feb-20 04:33N 44°44' E 037°47'1 1.1
2017-Feb-20 03:33N 44°43' E 037°48'9 9.0
2017-Feb-20 02:33N 44°34' E 037°51'1211.7
2017-Feb-20 01:30N 44°29' E 037°36'5 1.0
2017-Feb-19 20:30N 44°24' E 037°36'10 8.2
2017-Feb-19 19:19N 44°26' E 037°23'31 3.4
2017-Feb-19 10:10N 44°14' E 038°04'2438.0
2017-Feb-19 09:33N 44°18' E 037°32'1 1.2
2017-Feb-19 08:33N 44°17' E 037°33'4 0.2
2017-Feb-18 05:09N 44°14' E 037°36'910.9
2017-Feb-18 04:21N 44°22' E 037°32'  

Dump ship's entire track history